sensor_id;sensor_type;location;lat;lon;timestamp;pressure;altitude;pressure_sealevel;temperature;humidity
30302;BME280;17111;52.130;5.028;2023-04-22T00:02:01;100943.94;;;17.99;46.54
30302;BME280;17111;52.130;5.028;2023-04-22T00:04:28;100947.63;;;17.98;46.40
30302;BME280;17111;52.130;5.028;2023-04-22T00:06:55;100953.00;;;17.98;46.54
30302;BME280;17111;52.130;5.028;2023-04-22T00:09:22;100946.78;;;17.97;46.42
30302;BME280;17111;52.130;5.028;2023-04-22T00:11:49;100951.31;;;17.97;46.58
30302;BME280;17111;52.130;5.028;2023-04-22T00:14:15;100940.88;;;17.94;46.39
30302;BME280;17111;52.130;5.028;2023-04-22T00:16:42;100940.88;;;17.94;46.36
30302;BME280;17111;52.130;5.028;2023-04-22T00:19:09;100944.53;;;17.93;46.69
30302;BME280;17111;52.130;5.028;2023-04-22T00:21:36;100941.84;;;17.93;46.52
30302;BME280;17111;52.130;5.028;2023-04-22T00:24:02;100943.69;;;17.92;46.39
30302;BME280;17111;52.130;5.028;2023-04-22T00:26:29;100951.88;;;17.91;46.78
30302;BME280;17111;52.130;5.028;2023-04-22T00:28:56;100945.69;;;17.90;46.70
30302;BME280;17111;52.130;5.028;2023-04-22T00:31:22;100947.53;;;17.90;46.60
30302;BME280;17111;52.130;5.028;2023-04-22T00:33:49;100938.66;;;17.89;46.43
30302;BME280;17111;52.130;5.028;2023-04-22T00:36:15;100943.13;;;17.89;46.59
30302;BME280;17111;52.130;5.028;2023-04-22T00:38:47;100936.09;;;17.88;46.38
30302;BME280;17111;52.130;5.028;2023-04-22T00:41:14;100934.25;;;17.88;46.82
30302;BME280;17111;52.130;5.028;2023-04-22T00:43:40;100934.41;;;17.87;46.92
30302;BME280;17111;52.130;5.028;2023-04-22T00:46:07;100940.78;;;17.86;46.46
30302;BME280;17111;52.130;5.028;2023-04-22T00:48:37;100936.38;;;17.85;46.58
30302;BME280;17111;52.130;5.028;2023-04-22T00:51:04;100932.03;;;17.84;46.80
30302;BME280;17111;52.130;5.028;2023-04-22T00:53:31;100942.75;;;17.84;46.70
30302;BME280;17111;52.130;5.028;2023-04-22T00:55:58;100939.22;;;17.83;46.88
30302;BME280;17111;52.130;5.028;2023-04-22T00:58:28;100945.59;;;17.82;46.19
30302;BME280;17111;52.130;5.028;2023-04-22T01:00:55;100945.44;;;17.84;46.58
30302;BME280;17111;52.130;5.028;2023-04-22T01:03:22;100946.44;;;17.83;46.02
30302;BME280;17111;52.130;5.028;2023-04-22T01:07:57;100941.22;;;17.81;46.64
30302;BME280;17111;52.130;5.028;2023-04-22T01:10:24;100947.97;;;17.85;46.68
30302;BME280;17111;52.130;5.028;2023-04-22T01:12:51;100956.13;;;17.93;46.47
30302;BME280;17111;52.130;5.028;2023-04-22T01:15:17;100948.28;;;18.00;46.36
30302;BME280;17111;52.130;5.028;2023-04-22T01:17:44;100950.09;;;18.09;46.05
30302;BME280;17111;52.130;5.028;2023-04-22T01:20:11;100956.53;;;18.16;46.27
30302;BME280;17111;52.130;5.028;2023-04-22T01:22:40;100961.97;;;18.24;46.12
30302;BME280;17111;52.130;5.028;2023-04-22T01:25:08;100959.53;;;18.31;46.16
30302;BME280;17111;52.130;5.028;2023-04-22T01:27:37;100958.94;;;18.37;45.92
30302;BME280;17111;52.130;5.028;2023-04-22T01:30:05;100962.13;;;18.41;45.67
30302;BME280;17111;52.130;5.028;2023-04-22T01:32:32;100958.13;;;18.45;45.50
30302;BME280;17111;52.130;5.028;2023-04-22T01:34:59;100948.09;;;18.47;45.79
30302;BME280;17111;52.130;5.028;2023-04-22T01:37:25;100955.84;;;18.50;45.59
30302;BME280;17111;52.130;5.028;2023-04-22T01:39:52;100954.69;;;18.53;45.17
30302;BME280;17111;52.130;5.028;2023-04-22T01:42:19;100965.28;;;18.54;45.08
30302;BME280;17111;52.130;5.028;2023-04-22T01:44:46;100961.75;;;18.54;45.08
30302;BME280;17111;52.130;5.028;2023-04-22T01:47:12;100959.09;;;18.54;45.07
30302;BME280;17111;52.130;5.028;2023-04-22T01:49:39;100962.59;;;18.54;45.06
30302;BME280;17111;52.130;5.028;2023-04-22T01:52:06;100965.28;;;18.54;45.45
30302;BME280;17111;52.130;5.028;2023-04-22T01:54:33;100958.22;;;18.53;45.38
30302;BME280;17111;52.130;5.028;2023-04-22T01:57:07;100961.75;;;18.54;45.22
30302;BME280;17111;52.130;5.028;2023-04-22T01:59:35;100958.22;;;18.53;45.13
30302;BME280;17111;52.130;5.028;2023-04-22T02:02:02;100952.00;;;18.53;45.08
30302;BME280;17111;52.130;5.028;2023-04-22T02:04:29;100947.47;;;18.53;45.24
30302;BME280;17111;52.130;5.028;2023-04-22T02:06:55;100946.63;;;18.53;44.96
30302;BME280;17111;52.130;5.028;2023-04-22T02:09:22;100946.63;;;18.53;45.08
30302;BME280;17111;52.130;5.028;2023-04-22T02:11:49;100951.16;;;18.52;45.34
30302;BME280;17111;52.130;5.028;2023-04-22T02:14:15;100944.13;;;18.51;45.11
30302;BME280;17111;52.130;5.028;2023-04-22T02:16:42;100949.50;;;18.51;45.27
30302;BME280;17111;52.130;5.028;2023-04-22T02:19:08;100945.97;;;18.50;44.87
30302;BME280;17111;52.130;5.028;2023-04-22T02:21:35;100947.81;;;18.50;44.87
30302;BME280;17111;52.130;5.028;2023-04-22T02:24:02;100954.31;;;18.47;45.46
30302;BME280;17111;52.130;5.028;2023-04-22T02:26:28;100954.63;;;18.44;45.02
30302;BME280;17111;52.130;5.028;2023-04-22T02:28:56;100941.53;;;18.41;45.16
30302;BME280;17111;52.130;5.028;2023-04-22T02:31:22;100945.50;;;18.37;45.05
30302;BME280;17111;52.130;5.028;2023-04-22T02:33:49;100940.59;;;18.33;45.06
30302;BME280;17111;52.130;5.028;2023-04-22T02:36:15;100940.44;;;18.34;45.30
30302;BME280;17111;52.130;5.028;2023-04-22T02:38:42;100939.97;;;18.39;45.66
30302;BME280;17111;52.130;5.028;2023-04-22T02:41:09;100939.50;;;18.43;45.49
30302;BME280;17111;52.130;5.028;2023-04-22T02:43:36;100930.88;;;18.49;44.84
30302;BME280;17111;52.130;5.028;2023-04-22T02:46:03;100933.06;;;18.54;44.88
30302;BME280;17111;52.130;5.028;2023-04-22T02:48:30;100929.09;;;18.58;45.17
30302;BME280;17111;52.130;5.028;2023-04-22T02:50:56;100926.59;;;18.65;44.91
30302;BME280;17111;52.130;5.028;2023-04-22T02:53:23;100919.94;;;18.69;44.80
30302;BME280;17111;52.130;5.028;2023-04-22T02:55:49;100916.81;;;18.73;44.57
30302;BME280;17111;52.130;5.028;2023-04-22T02:58:17;100919.03;;;18.78;44.72
30302;BME280;17111;52.130;5.028;2023-04-22T03:00:44;100906.28;;;18.80;44.48
30302;BME280;17111;52.130;5.028;2023-04-22T03:03:10;100905.28;;;18.81;44.63
30302;BME280;17111;52.130;5.028;2023-04-22T03:05:38;100910.66;;;18.81;44.87
30302;BME280;17111;52.130;5.028;2023-04-22T03:08:05;100913.34;;;18.81;44.58
30302;BME280;17111;52.130;5.028;2023-04-22T03:10:32;100903.47;;;18.82;44.76
30302;BME280;17111;52.130;5.028;2023-04-22T03:12:58;100903.59;;;18.80;44.63
30302;BME280;17111;52.130;5.028;2023-04-22T03:15:25;100905.44;;;18.80;44.87
30302;BME280;17111;52.130;5.028;2023-04-22T03:17:51;100894.88;;;18.78;44.79
30302;BME280;17111;52.130;5.028;2023-04-22T03:20:19;100893.16;;;18.77;44.24
30302;BME280;17111;52.130;5.028;2023-04-22T03:22:45;100898.53;;;18.77;44.69
30302;BME280;17111;52.130;5.028;2023-04-22T03:25:12;100895.19;;;18.75;44.46
30302;BME280;17111;52.130;5.028;2023-04-22T03:27:39;100894.34;;;18.74;44.43
30302;BME280;17111;52.130;5.028;2023-04-22T03:30:06;100889.28;;;18.71;44.73
30302;BME280;17111;52.130;5.028;2023-04-22T03:32:33;100884.06;;;18.70;44.46
30302;BME280;17111;52.130;5.028;2023-04-22T03:34:59;100886.88;;;18.68;44.64
30302;BME280;17111;52.130;5.028;2023-04-22T03:37:27;100878.13;;;18.66;44.56
30302;BME280;17111;52.130;5.028;2023-04-22T03:39:53;100874.63;;;18.66;44.87
30302;BME280;17111;52.130;5.028;2023-04-22T03:42:20;100867.72;;;18.63;44.92
30302;BME280;17111;52.130;5.028;2023-04-22T03:44:46;100866.88;;;18.63;45.01
30302;BME280;17111;52.130;5.028;2023-04-22T03:47:13;100865.19;;;18.62;44.91
30302;BME280;17111;52.130;5.028;2023-04-22T03:49:40;100869.69;;;18.61;44.51
30302;BME280;17111;52.130;5.028;2023-04-22T03:52:07;100864.50;;;18.60;44.68
30302;BME280;17111;52.130;5.028;2023-04-22T03:54:33;100858.47;;;18.58;44.79
30302;BME280;17111;52.130;5.028;2023-04-22T03:57:00;100859.28;;;18.58;44.54
30302;BME280;17111;52.130;5.028;2023-04-22T03:59:26;100860.28;;;18.57;45.08
30302;BME280;17111;52.130;5.028;2023-04-22T04:01:53;100852.22;;;18.57;44.69
30302;BME280;17111;52.130;5.028;2023-04-22T04:04:19;100857.75;;;18.56;45.19
30302;BME280;17111;52.130;5.028;2023-04-22T04:06:48;100848.88;;;18.55;44.94
30302;BME280;17111;52.130;5.028;2023-04-22T04:09:15;100849.03;;;18.54;44.77
30302;BME280;17111;52.130;5.028;2023-04-22T04:11:41;100843.66;;;18.54;44.97
30302;BME280;17111;52.130;5.028;2023-04-22T04:14:08;100850.84;;;18.53;44.60
30302;BME280;17111;52.130;5.028;2023-04-22T04:16:35;100840.28;;;18.52;44.64
30302;BME280;17111;52.130;5.028;2023-04-22T04:19:02;100842.97;;;18.52;44.78
30302;BME280;17111;52.130;5.028;2023-04-22T04:21:28;100839.59;;;18.49;45.11
30302;BME280;17111;52.130;5.028;2023-04-22T04:23:58;100830.69;;;18.49;45.07
30302;BME280;17111;52.130;5.028;2023-04-22T04:26:25;100831.69;;;18.48;45.02
30302;BME280;17111;52.130;5.028;2023-04-22T04:28:54;100828.00;;;18.49;45.00
30302;BME280;17111;52.130;5.028;2023-04-22T04:31:21;100835.91;;;18.50;44.33
30302;BME280;17111;52.130;5.028;2023-04-22T04:33:50;100837.59;;;18.52;45.20
30302;BME280;17111;52.130;5.028;2023-04-22T04:36:17;100831.09;;;18.54;44.73
30302;BME280;17111;52.130;5.028;2023-04-22T04:38:45;100832.75;;;18.55;45.00
30302;BME280;17111;52.130;5.028;2023-04-22T04:41:13;100823.56;;;18.58;44.86
30302;BME280;17111;52.130;5.028;2023-04-22T04:43:39;100831.28;;;18.61;44.84
30302;BME280;17111;52.130;5.028;2023-04-22T04:46:06;100826.75;;;18.61;44.67
30302;BME280;17111;52.130;5.028;2023-04-22T04:48:33;100831.97;;;18.63;44.48
30302;BME280;17111;52.130;5.028;2023-04-22T04:51:02;100824.44;;;18.66;44.68
30302;BME280;17111;52.130;5.028;2023-04-22T04:53:29;100825.94;;;18.69;44.72
30302;BME280;17111;52.130;5.028;2023-04-22T04:55:55;100829.38;;;18.71;44.95
30302;BME280;17111;52.130;5.028;2023-04-22T04:58:22;100823.84;;;18.72;44.41
30302;BME280;17111;52.130;5.028;2023-04-22T05:00:49;100827.22;;;18.74;44.41
30302;BME280;17111;52.130;5.028;2023-04-22T05:03:15;100822.69;;;18.75;44.46
30302;BME280;17111;52.130;5.028;2023-04-22T05:05:42;100825.38;;;18.75;44.57
30302;BME280;17111;52.130;5.028;2023-04-22T05:08:09;100825.38;;;18.75;44.80
30302;BME280;17111;52.130;5.028;2023-04-22T05:10:35;100827.34;;;18.73;44.75
30302;BME280;17111;52.130;5.028;2023-04-22T05:13:02;100832.72;;;18.73;44.65
30302;BME280;17111;52.130;5.028;2023-04-22T05:15:29;100832.06;;;18.71;44.45
30302;BME280;17111;52.130;5.028;2023-04-22T05:17:56;100829.50;;;18.69;44.93
30302;BME280;17111;52.130;5.028;2023-04-22T05:20:23;100832.34;;;18.68;44.49
30302;BME280;17111;52.130;5.028;2023-04-22T05:22:49;100832.50;;;18.66;44.74
30302;BME280;17111;52.130;5.028;2023-04-22T05:25:16;100827.28;;;18.65;44.51
30302;BME280;17111;52.130;5.028;2023-04-22T05:27:42;100829.44;;;18.61;44.65
30302;BME280;17111;52.130;5.028;2023-04-22T05:30:09;100823.38;;;18.59;45.01
30302;BME280;17111;52.130;5.028;2023-04-22T05:32:36;100829.91;;;18.57;44.45
30302;BME280;17111;52.130;5.028;2023-04-22T05:35:02;100830.38;;;18.52;44.61
30302;BME280;17111;52.130;5.028;2023-04-22T05:37:29;100842.44;;;18.48;44.66
30302;BME280;17111;52.130;5.028;2023-04-22T05:39:56;100844.56;;;18.44;44.62
30302;BME280;17111;52.130;5.028;2023-04-22T05:42:23;100844.22;;;18.39;45.21
30302;BME280;17111;52.130;5.028;2023-04-22T05:44:49;100851.91;;;18.34;45.35
30302;BME280;17111;52.130;5.028;2023-04-22T05:47:16;100854.22;;;18.29;45.07
30302;BME280;17111;52.130;5.028;2023-04-22T05:49:43;100847.44;;;18.25;45.66
30302;BME280;17111;52.130;5.028;2023-04-22T05:52:09;100844.38;;;18.20;45.62
30302;BME280;17111;52.130;5.028;2023-04-22T05:54:36;100848.38;;;18.16;45.72
30302;BME280;17111;52.130;5.028;2023-04-22T05:57:03;100845.16;;;18.12;45.62
30302;BME280;17111;52.130;5.028;2023-04-22T05:59:29;100837.44;;;18.09;45.73
30302;BME280;17111;52.130;5.028;2023-04-22T06:01:56;100837.75;;;18.06;45.52
30302;BME280;17111;52.130;5.028;2023-04-22T06:04:22;100840.72;;;18.03;46.05
30302;BME280;17111;52.130;5.028;2023-04-22T06:06:50;100835.66;;;18.00;46.07
30302;BME280;17111;52.130;5.028;2023-04-22T06:09:20;100842.19;;;17.97;45.89
30302;BME280;17111;52.130;5.028;2023-04-22T06:11:47;100833.44;;;17.95;45.86
30302;BME280;17111;52.130;5.028;2023-04-22T06:14:13;100837.25;;;17.93;46.19
30302;BME280;17111;52.130;5.028;2023-04-22T06:16:40;100833.91;;;17.91;46.58
30302;BME280;17111;52.130;5.028;2023-04-22T06:19:07;100835.88;;;17.89;46.08
30302;BME280;17111;52.130;5.028;2023-04-22T06:21:34;100828.84;;;17.88;46.46
30302;BME280;17111;52.130;5.028;2023-04-22T06:24:02;100830.84;;;17.86;46.27
30302;BME280;17111;52.130;5.028;2023-04-22T06:26:31;100830.00;;;17.85;46.42
30302;BME280;17111;52.130;5.028;2023-04-22T06:28:57;100811.38;;;17.84;46.10
30302;BME280;17111;52.130;5.028;2023-04-22T06:31:24;100804.34;;;17.83;46.60
30302;BME280;17111;52.130;5.028;2023-04-22T06:33:51;100799.81;;;17.83;46.58
30302;BME280;17111;52.130;5.028;2023-04-22T06:36:17;100795.28;;;17.84;46.30
30302;BME280;17111;52.130;5.028;2023-04-22T06:38:44;100800.66;;;17.84;46.32
30302;BME280;17111;52.130;5.028;2023-04-22T06:41:10;100797.84;;;17.85;46.57
30302;BME280;17111;52.130;5.028;2023-04-22T06:43:37;100801.34;;;17.86;46.49
30302;BME280;17111;52.130;5.028;2023-04-22T06:46:04;100803.72;;;17.89;46.24
30302;BME280;17111;52.130;5.028;2023-04-22T06:48:30;100793.84;;;17.89;46.29
30302;BME280;17111;52.130;5.028;2023-04-22T06:50:57;100796.19;;;17.92;46.14
30302;BME280;17111;52.130;5.028;2023-04-22T06:53:24;100790.69;;;17.94;46.66
30302;BME280;17111;52.130;5.028;2023-04-22T06:55:50;100777.13;;;17.95;46.55
30302;BME280;17111;52.130;5.028;2023-04-22T06:58:18;100773.31;;;17.98;46.57
30302;BME280;17111;52.130;5.028;2023-04-22T07:00:45;100773.84;;;18.02;46.22
30302;BME280;17111;52.130;5.028;2023-04-22T07:03:12;100780.72;;;18.04;46.27
30302;BME280;17111;52.130;5.028;2023-04-22T07:05:38;100785.94;;;18.06;46.10
30302;BME280;17111;52.130;5.028;2023-04-22T07:08:08;100789.16;;;18.09;46.39
30302;BME280;17111;52.130;5.028;2023-04-22T07:10:35;100784.47;;;18.11;45.87
30302;BME280;17111;52.130;5.028;2023-04-22T07:13:01;100777.97;;;18.14;46.12
30302;BME280;17111;52.130;5.028;2023-04-22T07:15:28;100789.34;;;18.16;46.16
30302;BME280;17111;52.130;5.028;2023-04-22T07:17:54;100783.69;;;18.19;45.76
30302;BME280;17111;52.130;5.028;2023-04-22T07:20:21;100784.34;;;18.21;46.02
30302;BME280;17111;52.130;5.028;2023-04-22T07:22:47;100778.84;;;18.22;45.82
30302;BME280;17111;52.130;5.028;2023-04-22T07:25:14;100776.00;;;18.24;45.44
30302;BME280;17111;52.130;5.028;2023-04-22T07:27:41;100782.75;;;18.28;45.90
30302;BME280;17111;52.130;5.028;2023-04-22T07:30:08;100775.22;;;18.32;45.75
30302;BME280;17111;52.130;5.028;2023-04-22T07:32:34;100772.41;;;18.33;45.80
30302;BME280;17111;52.130;5.028;2023-04-22T07:35:01;100774.75;;;18.36;45.43
30302;BME280;17111;52.130;5.028;2023-04-22T07:37:27;100778.81;;;18.40;45.82
30302;BME280;17111;52.130;5.028;2023-04-22T07:39:54;100773.28;;;18.42;45.87
30302;BME280;17111;52.130;5.028;2023-04-22T07:42:21;100778.31;;;18.45;45.58
30302;BME280;17111;52.130;5.028;2023-04-22T07:44:47;100779.69;;;18.49;45.53
30302;BME280;17111;52.130;5.028;2023-04-22T07:47:14;100787.59;;;18.50;45.53
30302;BME280;17111;52.130;5.028;2023-04-22T07:49:40;100797.16;;;18.53;45.61
30302;BME280;17111;52.130;5.028;2023-04-22T07:52:08;100788.81;;;18.56;45.93
30302;BME280;17111;52.130;5.028;2023-04-22T07:54:35;100805.44;;;18.60;45.86
30302;BME280;17111;52.130;5.028;2023-04-22T07:57:01;100805.13;;;18.63;45.66
30302;BME280;17111;52.130;5.028;2023-04-22T07:59:28;100808.66;;;18.63;45.53
30302;BME280;17111;52.130;5.028;2023-04-22T08:01:55;100801.28;;;18.65;45.83
30302;BME280;17111;52.130;5.028;2023-04-22T08:04:22;100802.81;;;18.68;45.50
30302;BME280;17111;52.130;5.028;2023-04-22T08:06:49;100796.41;;;18.69;45.59
30302;BME280;17111;52.130;5.028;2023-04-22T08:09:16;100786.56;;;18.69;45.01
30302;BME280;17111;52.130;5.028;2023-04-22T08:11:42;100778.34;;;18.71;45.83
30302;BME280;17111;52.130;5.028;2023-04-22T08:14:09;100770.31;;;18.71;45.33
30302;BME280;17111;52.130;5.028;2023-04-22T08:16:37;100771.97;;;18.72;45.73
30302;BME280;17111;52.130;5.028;2023-04-22T08:19:04;100776.19;;;18.74;45.14
30302;BME280;17111;52.130;5.028;2023-04-22T08:21:31;100761.75;;;18.76;45.53
30302;BME280;17111;52.130;5.028;2023-04-22T08:23:58;100749.19;;;18.76;45.47
30302;BME280;17111;52.130;5.028;2023-04-22T08:26:24;100744.66;;;18.77;45.33
30302;BME280;17111;52.130;5.028;2023-04-22T08:28:51;100739.97;;;18.79;45.34
30302;BME280;17111;52.130;5.028;2023-04-22T08:31:17;100738.97;;;18.80;45.30
30302;BME280;17111;52.130;5.028;2023-04-22T08:33:44;100743.31;;;18.81;45.40
30302;BME280;17111;52.130;5.028;2023-04-22T08:36:11;100748.53;;;18.82;45.50
30302;BME280;17111;52.130;5.028;2023-04-22T08:38:38;100744.84;;;18.83;45.35
30302;BME280;17111;52.130;5.028;2023-04-22T08:41:05;100748.38;;;18.84;45.48
30302;BME280;17111;52.130;5.028;2023-04-22T08:43:32;100742.00;;;18.85;45.41
30302;BME280;17111;52.130;5.028;2023-04-22T08:45:59;100750.75;;;18.87;45.11
30302;BME280;17111;52.130;5.028;2023-04-22T08:48:27;100743.34;;;18.89;44.80
30302;BME280;17111;52.130;5.028;2023-04-22T08:50:54;100750.44;;;18.90;45.30
30302;BME280;17111;52.130;5.028;2023-04-22T08:53:20;100744.88;;;18.91;45.26
30302;BME280;17111;52.130;5.028;2023-04-22T08:55:50;100746.41;;;18.94;44.98
30302;BME280;17111;52.130;5.028;2023-04-22T08:58:17;100743.56;;;18.95;45.15
30302;BME280;17111;52.130;5.028;2023-04-22T09:00:43;100745.09;;;18.98;44.48
30302;BME280;17111;52.130;5.028;2023-04-22T09:03:11;100738.72;;;18.99;44.83
30302;BME280;17111;52.130;5.028;2023-04-22T09:05:39;100732.19;;;19.02;44.54
30302;BME280;17111;52.130;5.028;2023-04-22T09:08:06;100738.22;;;19.04;44.78
30302;BME280;17111;52.130;5.028;2023-04-22T09:10:36;100739.75;;;19.06;45.00
30302;BME280;17111;52.130;5.028;2023-04-22T09:13:04;100720.75;;;19.08;45.19
30302;BME280;17111;52.130;5.028;2023-04-22T09:15:32;100724.97;;;19.10;45.14
30302;BME280;17111;52.130;5.028;2023-04-22T09:18:01;100711.19;;;19.13;44.88
30302;BME280;17111;52.130;5.028;2023-04-22T09:20:28;100713.75;;;19.15;44.82
30302;BME280;17111;52.130;5.028;2023-04-22T09:22:56;100707.19;;;19.17;45.95
30302;BME280;17111;52.130;5.028;2023-04-22T09:25:27;100702.31;;;19.21;45.91
30302;BME280;17111;52.130;5.028;2023-04-22T09:27:58;100703.00;;;19.23;46.44
30302;BME280;17111;52.130;5.028;2023-04-22T09:32:59;100691.44;;;19.31;46.37
30302;BME280;17111;52.130;5.028;2023-04-22T09:35:31;100684.72;;;19.35;45.88
30302;BME280;17111;52.130;5.028;2023-04-22T09:38:00;100667.41;;;19.37;46.17
30302;BME280;17111;52.130;5.028;2023-04-22T09:40:30;100661.56;;;19.42;46.04
30302;BME280;17111;52.130;5.028;2023-04-22T09:43:00;100651.28;;;19.45;46.03
30302;BME280;17111;52.130;5.028;2023-04-22T09:45:31;100640.06;;;19.50;45.88
30302;BME280;17111;52.130;5.028;2023-04-22T09:48:18;100626.44;;;19.52;45.80
30302;BME280;17111;52.130;5.028;2023-04-22T09:50:47;100623.22;;;19.56;45.93
30302;BME280;17111;52.130;5.028;2023-04-22T09:53:16;100639.88;;;19.60;45.64
30302;BME280;17111;52.130;5.028;2023-04-22T09:55:46;100660.25;;;19.62;46.09
30302;BME280;17111;52.130;5.028;2023-04-22T09:58:15;100676.88;;;19.66;45.58
30302;BME280;17111;52.130;5.028;2023-04-22T10:00:49;100680.22;;;19.68;45.90
30302;BME280;17111;52.130;5.028;2023-04-22T10:03:17;100684.59;;;19.69;45.75
30302;BME280;17111;52.130;5.028;2023-04-22T10:05:44;100678.22;;;19.70;45.88
30302;BME280;17111;52.130;5.028;2023-04-22T10:08:12;100685.28;;;19.71;45.01
30302;BME280;17111;52.130;5.028;2023-04-22T10:10:40;100686.78;;;19.73;45.22
30302;BME280;17111;52.130;5.028;2023-04-22T10:13:07;100685.59;;;19.76;45.09
30302;BME280;17111;52.130;5.028;2023-04-22T10:15:46;100680.03;;;19.78;45.10
30302;BME280;17111;52.130;5.028;2023-04-22T10:18:18;100672.47;;;19.81;45.30
30302;BME280;17111;52.130;5.028;2023-04-22T10:20:47;100680.41;;;19.83;45.22
30302;BME280;17111;52.130;5.028;2023-04-22T10:23:18;100679.38;;;19.84;45.21
30302;BME280;17111;52.130;5.028;2023-04-22T10:25:51;100675.69;;;19.85;45.55
30302;BME280;17111;52.130;5.028;2023-04-22T10:28:19;100676.50;;;19.85;45.20
30302;BME280;17111;52.130;5.028;2023-04-22T10:30:47;100663.91;;;19.86;45.22
30302;BME280;17111;52.130;5.028;2023-04-22T10:36:05;100665.75;;;19.85;45.41
30302;BME280;17111;52.130;5.028;2023-04-22T10:41:12;100668.78;;;19.90;45.43
30302;BME280;17111;52.130;5.028;2023-04-22T10:43:40;100664.06;;;19.92;44.73
30302;BME280;17111;52.130;5.028;2023-04-22T10:49:10;100692.50;;;19.95;44.57
30302;BME280;17111;52.130;5.028;2023-04-22T10:51:41;100697.19;;;19.93;44.87
30302;BME280;17111;52.130;5.028;2023-04-22T10:59:44;100706.28;;;19.92;44.51
30302;BME280;17111;52.130;5.028;2023-04-22T11:02:16;100694.69;;;19.91;44.73
30302;BME280;17111;52.130;5.028;2023-04-22T11:04:43;100684.06;;;19.90;45.35
30302;BME280;17111;52.130;5.028;2023-04-22T11:09:58;100684.25;;;19.88;45.00
30302;BME280;17111;52.130;5.028;2023-04-22T11:15:05;100696.84;;;19.88;45.38
30302;BME280;17111;52.130;5.028;2023-04-22T11:17:32;100687.13;;;19.87;45.01
30302;BME280;17111;52.130;5.028;2023-04-22T11:19:59;100677.34;;;19.86;45.40
30302;BME280;17111;52.130;5.028;2023-04-22T11:22:26;100669.28;;;19.86;45.22
30302;BME280;17111;52.130;5.028;2023-04-22T11:24:57;100661.38;;;19.84;44.90
30302;BME280;17111;52.130;5.028;2023-04-22T11:27:24;100673.81;;;19.85;45.58
30302;BME280;17111;52.130;5.028;2023-04-22T11:32:28;100685.59;;;19.84;45.84
30302;BME280;17111;52.130;5.028;2023-04-22T11:34:55;100710.81;;;19.83;45.66
30302;BME280;17111;52.130;5.028;2023-04-22T11:37:23;100705.44;;;19.83;45.88
30302;BME280;17111;52.130;5.028;2023-04-22T11:39:50;100709.16;;;19.82;45.66
30302;BME280;17111;52.130;5.028;2023-04-22T11:42:21;100704.59;;;19.83;45.38
30302;BME280;17111;52.130;5.028;2023-04-22T11:44:49;100721.59;;;19.83;45.35
30302;BME280;17111;52.130;5.028;2023-04-22T11:47:16;100711.66;;;19.84;45.81
30302;BME280;17111;52.130;5.028;2023-04-22T11:49:59;100704.59;;;19.83;45.21
30302;BME280;17111;52.130;5.028;2023-04-22T11:52:50;100716.34;;;19.82;45.26
30302;BME280;17111;52.130;5.028;2023-04-22T11:55:23;100711.97;;;19.81;45.45
30302;BME280;17111;52.130;5.028;2023-04-22T11:57:54;100726.44;;;19.80;45.19
30302;BME280;17111;52.130;5.028;2023-04-22T12:00:22;100719.56;;;19.77;45.19
30302;BME280;17111;52.130;5.028;2023-04-22T12:02:58;100716.84;;;19.77;44.87
30302;BME280;17111;52.130;5.028;2023-04-22T12:05:32;100718.06;;;19.75;45.47
30302;BME280;17111;52.130;5.028;2023-04-22T12:08:05;100720.75;;;19.75;45.15
30302;BME280;17111;52.130;5.028;2023-04-22T12:10:31;100719.91;;;19.74;45.18
30302;BME280;17111;52.130;5.028;2023-04-22T12:13:00;100729.13;;;19.71;44.83
30302;BME280;17111;52.130;5.028;2023-04-22T12:15:36;100737.53;;;19.68;45.45
30302;BME280;17111;52.130;5.028;2023-04-22T12:18:03;100735.03;;;19.67;45.00
30302;BME280;17111;52.130;5.028;2023-04-22T12:20:34;100721.91;;;19.64;45.14
30302;BME280;17111;52.130;5.028;2023-04-22T12:23:01;100714.03;;;19.62;45.26
30302;BME280;17111;52.130;5.028;2023-04-22T12:25:28;100733.69;;;19.63;45.43
30302;BME280;17111;52.130;5.028;2023-04-22T12:27:55;100759.19;;;19.59;45.93
30302;BME280;17111;52.130;5.028;2023-04-22T12:30:22;100777.50;;;19.55;45.72
30302;BME280;17111;52.130;5.028;2023-04-22T12:32:51;100751.09;;;19.51;45.65
30302;BME280;17111;52.130;5.028;2023-04-22T12:35:17;100737.66;;;19.51;45.96
30302;BME280;17111;52.130;5.028;2023-04-22T12:37:44;100735.13;;;19.49;45.81
30302;BME280;17111;52.130;5.028;2023-04-22T12:40:11;100737.16;;;19.47;45.99
30302;BME280;17111;52.130;5.028;2023-04-22T12:42:37;100725.56;;;19.46;45.87
30302;BME280;17111;52.130;5.028;2023-04-22T12:45:04;100718.34;;;19.47;45.92
30302;BME280;17111;52.130;5.028;2023-04-22T12:47:31;100723.72;;;19.47;46.19
30302;BME280;17111;52.130;5.028;2023-04-22T12:49:57;100716.47;;;19.47;46.00
30302;BME280;17111;52.130;5.028;2023-04-22T12:52:26;100701.00;;;19.49;45.80
30302;BME280;17111;52.130;5.028;2023-04-22T12:54:53;100685.75;;;19.50;45.47
30302;BME280;17111;52.130;5.028;2023-04-22T12:57:19;100687.44;;;19.51;46.25
30302;BME280;17111;52.130;5.028;2023-04-22T12:59:46;100700.88;;;19.51;45.72
30302;BME280;17111;52.130;5.028;2023-04-22T13:02:13;100703.69;;;19.49;45.71
30302;BME280;17111;52.130;5.028;2023-04-22T13:04:39;100706.56;;;19.48;46.31
30302;BME280;17111;52.130;5.028;2023-04-22T13:07:06;100703.88;;;19.48;45.81
30302;BME280;17111;52.130;5.028;2023-04-22T13:09:33;100711.09;;;19.47;46.41
30302;BME280;17111;52.130;5.028;2023-04-22T13:11:59;100713.97;;;19.46;46.35
30302;BME280;17111;52.130;5.028;2023-04-22T13:14:26;100712.28;;;19.45;46.53
30302;BME280;17111;52.130;5.028;2023-04-22T13:16:53;100717.66;;;19.45;46.00
30302;BME280;17111;52.130;5.028;2023-04-22T13:19:19;100715.97;;;19.44;46.04